sensor_id;sensor_type;location;lat;lon;timestamp;temperature;humidity
18173;DHT22;9211;48.818;9.312;2022-08-11T00:01:46;19.20;87.40
18173;DHT22;9211;48.818;9.312;2022-08-11T00:04:15;19.20;87.30
18173;DHT22;9211;48.818;9.312;2022-08-11T00:06:44;19.10;88.00
18173;DHT22;9211;48.818;9.312;2022-08-11T00:09:15;19.10;87.10
18173;DHT22;9211;48.818;9.312;2022-08-11T00:11:46;19.00;87.20
18173;DHT22;9211;48.818;9.312;2022-08-11T00:14:16;19.00;87.50
18173;DHT22;9211;48.818;9.312;2022-08-11T00:16:53;19.00;87.40
18173;DHT22;9211;48.818;9.312;2022-08-11T00:19:22;19.00;87.70
18173;DHT22;9211;48.818;9.312;2022-08-11T00:21:50;19.00;87.40
18173;DHT22;9211;48.818;9.312;2022-08-11T00:24:17;18.90;88.00
18173;DHT22;9211;48.818;9.312;2022-08-11T00:26:49;18.90;88.20
18173;DHT22;9211;48.818;9.312;2022-08-11T00:29:17;19.00;88.30
18173;DHT22;9211;48.818;9.312;2022-08-11T00:31:48;19.00;88.00
18173;DHT22;9211;48.818;9.312;2022-08-11T00:34:18;18.90;88.30
18173;DHT22;9211;48.818;9.312;2022-08-11T00:36:49;18.90;88.40
18173;DHT22;9211;48.818;9.312;2022-08-11T00:39:19;18.70;89.00
18173;DHT22;9211;48.818;9.312;2022-08-11T00:42:03;18.70;89.40
18173;DHT22;9211;48.818;9.312;2022-08-11T00:44:45;18.70;89.40
18173;DHT22;9211;48.818;9.312;2022-08-11T00:47:23;18.70;89.80
18173;DHT22;9211;48.818;9.312;2022-08-11T00:50:04;18.50;90.10
18173;DHT22;9211;48.818;9.312;2022-08-11T00:52:48;18.40;90.10
18173;DHT22;9211;48.818;9.312;2022-08-11T00:55:38;18.50;90.10
18173;DHT22;9211;48.818;9.312;2022-08-11T01:01:26;18.40;89.60
18173;DHT22;9211;48.818;9.312;2022-08-11T01:04:55;18.50;89.90
18173;DHT22;9211;48.818;9.312;2022-08-11T01:11:08;18.50;89.80
18173;DHT22;9211;48.818;9.312;2022-08-11T01:14:07;18.50;89.50
18173;DHT22;9211;48.818;9.312;2022-08-11T01:20:02;18.30;90.30
18173;DHT22;9211;48.818;9.312;2022-08-11T01:22:59;18.30;90.50
18173;DHT22;9211;48.818;9.312;2022-08-11T01:32:12;18.00;90.70
18173;DHT22;9211;48.818;9.312;2022-08-11T01:35:35;18.00;90.90
18173;DHT22;9211;48.818;9.312;2022-08-11T01:41:32;17.90;91.30
18173;DHT22;9211;48.818;9.312;2022-08-11T01:47:25;17.80;91.40
18173;DHT22;9211;48.818;9.312;2022-08-11T01:50:21;17.70;91.50
18173;DHT22;9211;48.818;9.312;2022-08-11T01:53:03;17.80;91.90
18173;DHT22;9211;48.818;9.312;2022-08-11T01:55:36;17.70;91.80
18173;DHT22;9211;48.818;9.312;2022-08-11T01:58:12;17.70;91.80
18173;DHT22;9211;48.818;9.312;2022-08-11T02:03:28;17.80;91.70
18173;DHT22;9211;48.818;9.312;2022-08-11T02:06:09;17.90;91.40
18173;DHT22;9211;48.818;9.312;2022-08-11T02:09:02;18.10;90.90
18173;DHT22;9211;48.818;9.312;2022-08-11T02:11:32;18.10;91.40
18173;DHT22;9211;48.818;9.312;2022-08-11T02:14:14;17.80;92.00
18173;DHT22;9211;48.818;9.312;2022-08-11T02:16:54;17.70;91.90
18173;DHT22;9211;48.818;9.312;2022-08-11T02:19:37;17.60;92.00
18173;DHT22;9211;48.818;9.312;2022-08-11T02:22:31;17.60;92.00
18173;DHT22;9211;48.818;9.312;2022-08-11T02:25:25;17.60;92.20
18173;DHT22;9211;48.818;9.312;2022-08-11T02:28:01;17.60;92.50
18173;DHT22;9211;48.818;9.312;2022-08-11T02:30:38;17.60;92.30
18173;DHT22;9211;48.818;9.312;2022-08-11T02:33:15;17.60;92.20
18173;DHT22;9211;48.818;9.312;2022-08-11T02:35:57;17.60;92.40
18173;DHT22;9211;48.818;9.312;2022-08-11T02:38:32;17.50;92.50
18173;DHT22;9211;48.818;9.312;2022-08-11T02:41:13;17.40;92.60
18173;DHT22;9211;48.818;9.312;2022-08-11T02:44:14;17.30;92.80
18173;DHT22;9211;48.818;9.312;2022-08-11T02:46:50;17.30;93.10
18173;DHT22;9211;48.818;9.312;2022-08-11T02:49:32;17.20;93.20
18173;DHT22;9211;48.818;9.312;2022-08-11T02:52:33;17.20;93.20
18173;DHT22;9211;48.818;9.312;2022-08-11T02:55:13;17.10;93.50
18173;DHT22;9211;48.818;9.312;2022-08-11T02:57:50;17.10;93.50
18173;DHT22;9211;48.818;9.312;2022-08-11T03:00:18;17.00;93.60
18173;DHT22;9211;48.818;9.312;2022-08-11T03:03:02;17.00;94.10
18173;DHT22;9211;48.818;9.312;2022-08-11T03:05:55;16.90;94.00
18173;DHT22;9211;48.818;9.312;2022-08-11T03:08:39;16.90;93.90
18173;DHT22;9211;48.818;9.312;2022-08-11T03:11:19;17.00;93.90
18173;DHT22;9211;48.818;9.312;2022-08-11T03:14:15;17.00;93.80
18173;DHT22;9211;48.818;9.312;2022-08-11T03:17:14;16.90;94.20
18173;DHT22;9211;48.818;9.312;2022-08-11T03:19:48;16.70;94.50
18173;DHT22;9211;48.818;9.312;2022-08-11T03:22:22;16.60;94.70
18173;DHT22;9211;48.818;9.312;2022-08-11T03:24:57;16.40;94.80
18173;DHT22;9211;48.818;9.312;2022-08-11T03:27:33;16.50;95.10
18173;DHT22;9211;48.818;9.312;2022-08-11T03:30:10;16.50;95.10
18173;DHT22;9211;48.818;9.312;2022-08-11T03:32:50;16.40;95.20
18173;DHT22;9211;48.818;9.312;2022-08-11T03:35:38;16.40;95.40
18173;DHT22;9211;48.818;9.312;2022-08-11T03:38:09;16.40;95.60
18173;DHT22;9211;48.818;9.312;2022-08-11T03:40:46;16.40;95.70
18173;DHT22;9211;48.818;9.312;2022-08-11T03:43:51;16.40;95.70
18173;DHT22;9211;48.818;9.312;2022-08-11T03:46:31;16.50;95.80
18173;DHT22;9211;48.818;9.312;2022-08-11T03:49:07;16.50;95.90
18173;DHT22;9211;48.818;9.312;2022-08-11T03:51:51;16.50;96.10
18173;DHT22;9211;48.818;9.312;2022-08-11T03:54:27;16.40;96.10
18173;DHT22;9211;48.818;9.312;2022-08-11T03:57:38;16.40;96.10
18173;DHT22;9211;48.818;9.312;2022-08-11T04:00:28;16.50;96.20
18173;DHT22;9211;48.818;9.312;2022-08-11T04:03:43;16.50;96.00
18173;DHT22;9211;48.818;9.312;2022-08-11T04:06:49;16.50;96.10
18173;DHT22;9211;48.818;9.312;2022-08-11T04:09:54;16.40;96.50
18173;DHT22;9211;48.818;9.312;2022-08-11T04:12:52;16.40;96.50
18173;DHT22;9211;48.818;9.312;2022-08-11T04:15:44;16.30;96.70
18173;DHT22;9211;48.818;9.312;2022-08-11T04:21:35;16.30;97.00
18173;DHT22;9211;48.818;9.312;2022-08-11T04:27:31;16.40;97.20
18173;DHT22;9211;48.818;9.312;2022-08-11T04:30:06;16.40;97.20
18173;DHT22;9211;48.818;9.312;2022-08-11T04:35:56;16.30;97.50
18173;DHT22;9211;48.818;9.312;2022-08-11T04:38:42;16.30;97.60
18173;DHT22;9211;48.818;9.312;2022-08-11T04:41:22;16.20;97.80
18173;DHT22;9211;48.818;9.312;2022-08-11T04:44:23;16.10;98.00
18173;DHT22;9211;48.818;9.312;2022-08-11T04:47:09;16.20;98.40
18173;DHT22;9211;48.818;9.312;2022-08-11T04:50:13;16.00;98.70
18173;DHT22;9211;48.818;9.312;2022-08-11T04:53:13;16.00;99.20
18173;DHT22;9211;48.818;9.312;2022-08-11T04:56:07;16.00;99.10
18173;DHT22;9211;48.818;9.312;2022-08-11T04:59:30;16.10;98.80
18173;DHT22;9211;48.818;9.312;2022-08-11T05:05:33;16.20;99.10
18173;DHT22;9211;48.818;9.312;2022-08-11T05:14:22;16.20;99.40
18173;DHT22;9211;48.818;9.312;2022-08-11T05:17:13;16.30;99.50
18173;DHT22;9211;48.818;9.312;2022-08-11T05:19:58;16.40;99.40
18173;DHT22;9211;48.818;9.312;2022-08-11T05:22:47;16.50;98.80
18173;DHT22;9211;48.818;9.312;2022-08-11T05:25:34;16.60;99.10
18173;DHT22;9211;48.818;9.312;2022-08-11T05:28:30;16.60;99.30
18173;DHT22;9211;48.818;9.312;2022-08-11T05:31:19;16.70;99.00
18173;DHT22;9211;48.818;9.312;2022-08-11T05:34:09;16.80;98.70
18173;DHT22;9211;48.818;9.312;2022-08-11T05:37:00;16.90;98.80
18173;DHT22;9211;48.818;9.312;2022-08-11T05:39:32;17.00;98.20
18173;DHT22;9211;48.818;9.312;2022-08-11T05:42:20;17.00;98.20
18173;DHT22;9211;48.818;9.312;2022-08-11T05:45:15;17.20;98.90
18173;DHT22;9211;48.818;9.312;2022-08-11T05:48:01;17.20;99.20
18173;DHT22;9211;48.818;9.312;2022-08-11T05:50:51;17.30;98.40
18173;DHT22;9211;48.818;9.312;2022-08-11T05:53:46;17.40;98.20
18173;DHT22;9211;48.818;9.312;2022-08-11T05:56:33;17.50;98.10
18173;DHT22;9211;48.818;9.312;2022-08-11T05:59:01;17.60;97.80
18173;DHT22;9211;48.818;9.312;2022-08-11T06:01:30;17.70;97.70
18173;DHT22;9211;48.818;9.312;2022-08-11T06:04:05;17.90;97.70
18173;DHT22;9211;48.818;9.312;2022-08-11T06:06:50;18.00;97.70
18173;DHT22;9211;48.818;9.312;2022-08-11T06:09:24;18.00;97.90
18173;DHT22;9211;48.818;9.312;2022-08-11T06:11:55;18.10;97.00
18173;DHT22;9211;48.818;9.312;2022-08-11T06:14:23;18.20;96.20
18173;DHT22;9211;48.818;9.312;2022-08-11T06:16:55;18.30;95.90
18173;DHT22;9211;48.818;9.312;2022-08-11T06:19:31;18.40;95.60
18173;DHT22;9211;48.818;9.312;2022-08-11T06:22:00;18.50;96.00
18173;DHT22;9211;48.818;9.312;2022-08-11T06:24:28;18.60;96.30
18173;DHT22;9211;48.818;9.312;2022-08-11T06:26:57;18.70;95.30
18173;DHT22;9211;48.818;9.312;2022-08-11T06:29:26;18.80;95.00
18173;DHT22;9211;48.818;9.312;2022-08-11T06:31:56;18.80;95.40
18173;DHT22;9211;48.818;9.312;2022-08-11T06:34:36;18.80;95.60
18173;DHT22;9211;48.818;9.312;2022-08-11T06:37:29;18.90;95.10
18173;DHT22;9211;48.818;9.312;2022-08-11T06:40:07;19.10;94.80
18173;DHT22;9211;48.818;9.312;2022-08-11T06:42:46;19.10;94.60
18173;DHT22;9211;48.818;9.312;2022-08-11T06:45:26;19.20;94.40
18173;DHT22;9211;48.818;9.312;2022-08-11T06:47:55;19.30;94.40
18173;DHT22;9211;48.818;9.312;2022-08-11T06:50:28;19.40;94.20
18173;DHT22;9211;48.818;9.312;2022-08-11T06:53:15;19.50;94.20
18173;DHT22;9211;48.818;9.312;2022-08-11T06:55:45;19.60;94.00
18173;DHT22;9211;48.818;9.312;2022-08-11T06:58:32;19.70;93.90
18173;DHT22;9211;48.818;9.312;2022-08-11T07:01:23;19.80;93.80
18173;DHT22;9211;48.818;9.312;2022-08-11T07:04:08;19.90;93.70
18173;DHT22;9211;48.818;9.312;2022-08-11T07:06:47;20.00;93.50
18173;DHT22;9211;48.818;9.312;2022-08-11T07:10:06;20.10;93.20
18173;DHT22;9211;48.818;9.312;2022-08-11T07:12:59;20.20;93.00
18173;DHT22;9211;48.818;9.312;2022-08-11T07:15:46;20.30;92.40
18173;DHT22;9211;48.818;9.312;2022-08-11T07:18:20;20.50;92.20
18173;DHT22;9211;48.818;9.312;2022-08-11T07:21:10;20.50;92.40
18173;DHT22;9211;48.818;9.312;2022-08-11T07:23:58;20.60;92.30
18173;DHT22;9211;48.818;9.312;2022-08-11T07:26:49;20.60;92.20
18173;DHT22;9211;48.818;9.312;2022-08-11T07:29:35;20.70;92.10
18173;DHT22;9211;48.818;9.312;2022-08-11T07:32:16;20.80;92.40
18173;DHT22;9211;48.818;9.312;2022-08-11T07:34:51;20.90;92.20
18173;DHT22;9211;48.818;9.312;2022-08-11T07:37:22;21.00;92.10
18173;DHT22;9211;48.818;9.312;2022-08-11T07:39:52;21.00;91.90
18173;DHT22;9211;48.818;9.312;2022-08-11T07:42:26;21.20;91.60
18173;DHT22;9211;48.818;9.312;2022-08-11T07:44:54;21.30;91.50
18173;DHT22;9211;48.818;9.312;2022-08-11T07:47:40;21.40;91.30
18173;DHT22;9211;48.818;9.312;2022-08-11T07:50:26;21.60;90.80
18173;DHT22;9211;48.818;9.312;2022-08-11T07:53:13;21.60;90.60
18173;DHT22;9211;48.818;9.312;2022-08-11T07:55:42;21.70;90.60
18173;DHT22;9211;48.818;9.312;2022-08-11T07:58:10;21.90;90.60
18173;DHT22;9211;48.818;9.312;2022-08-11T08:00:56;22.00;90.30
18173;DHT22;9211;48.818;9.312;2022-08-11T08:03:42;22.10;90.00
18173;DHT22;9211;48.818;9.312;2022-08-11T08:06:29;22.10;88.90
18173;DHT22;9211;48.818;9.312;2022-08-11T08:09:17;22.20;88.60
18173;DHT22;9211;48.818;9.312;2022-08-11T08:12:04;22.20;88.60
18173;DHT22;9211;48.818;9.312;2022-08-11T08:14:49;22.30;88.90
18173;DHT22;9211;48.818;9.312;2022-08-11T08:17:35;22.40;88.90
18173;DHT22;9211;48.818;9.312;2022-08-11T08:20:17;22.50;89.10
18173;DHT22;9211;48.818;9.312;2022-08-11T08:22:46;22.60;87.40
18173;DHT22;9211;48.818;9.312;2022-08-11T08:25:13;22.60;88.20
18173;DHT22;9211;48.818;9.312;2022-08-11T08:27:44;22.80;87.60
18173;DHT22;9211;48.818;9.312;2022-08-11T08:30:12;22.90;86.20
18173;DHT22;9211;48.818;9.312;2022-08-11T08:32:59;22.90;86.10
18173;DHT22;9211;48.818;9.312;2022-08-11T08:35:27;23.00;85.00
18173;DHT22;9211;48.818;9.312;2022-08-11T08:37:56;23.10;84.60
18173;DHT22;9211;48.818;9.312;2022-08-11T08:40:25;23.10;84.40
18173;DHT22;9211;48.818;9.312;2022-08-11T08:42:55;23.20;84.50
18173;DHT22;9211;48.818;9.312;2022-08-11T08:45:23;23.30;83.40
18173;DHT22;9211;48.818;9.312;2022-08-11T08:47:56;23.30;82.70
18173;DHT22;9211;48.818;9.312;2022-08-11T08:50:26;23.40;83.60
18173;DHT22;9211;48.818;9.312;2022-08-11T08:53:17;23.50;81.70
18173;DHT22;9211;48.818;9.312;2022-08-11T08:55:46;23.60;81.10
18173;DHT22;9211;48.818;9.312;2022-08-11T08:58:18;23.60;80.60
18173;DHT22;9211;48.818;9.312;2022-08-11T09:00:49;23.70;80.10
18173;DHT22;9211;48.818;9.312;2022-08-11T09:03:17;23.70;79.70
18173;DHT22;9211;48.818;9.312;2022-08-11T09:05:46;23.80;79.10
18173;DHT22;9211;48.818;9.312;2022-08-11T09:08:15;23.90;78.80
18173;DHT22;9211;48.818;9.312;2022-08-11T09:10:45;23.90;78.70
18173;DHT22;9211;48.818;9.312;2022-08-11T09:13:13;24.00;78.40
18173;DHT22;9211;48.818;9.312;2022-08-11T09:15:44;24.00;78.00
18173;DHT22;9211;48.818;9.312;2022-08-11T09:18:11;24.10;75.60
18173;DHT22;9211;48.818;9.312;2022-08-11T09:20:39;24.20;75.50
18173;DHT22;9211;48.818;9.312;2022-08-11T09:23:07;24.20;75.60
18173;DHT22;9211;48.818;9.312;2022-08-11T09:25:55;24.20;75.80
18173;DHT22;9211;48.818;9.312;2022-08-11T09:28:41;24.30;75.60
18173;DHT22;9211;48.818;9.312;2022-08-11T09:31:11;24.40;75.80
18173;DHT22;9211;48.818;9.312;2022-08-11T09:33:39;24.40;74.00
18173;DHT22;9211;48.818;9.312;2022-08-11T09:36:07;24.50;73.80
18173;DHT22;9211;48.818;9.312;2022-08-11T09:38:52;24.60;73.10
18173;DHT22;9211;48.818;9.312;2022-08-11T09:41:38;24.70;71.90
18173;DHT22;9211;48.818;9.312;2022-08-11T09:44:07;24.70;71.80
18173;DHT22;9211;48.818;9.312;2022-08-11T09:46:55;24.90;71.90
18173;DHT22;9211;48.818;9.312;2022-08-11T09:49:25;24.90;71.60
18173;DHT22;9211;48.818;9.312;2022-08-11T09:51:53;25.00;70.70
18173;DHT22;9211;48.818;9.312;2022-08-11T09:54:23;25.00;70.70
18173;DHT22;9211;48.818;9.312;2022-08-11T09:56:51;25.00;69.60
18173;DHT22;9211;48.818;9.312;2022-08-11T09:59:36;25.10;69.20
18173;DHT22;9211;48.818;9.312;2022-08-11T10:02:06;25.20;69.00
18173;DHT22;9211;48.818;9.312;2022-08-11T10:04:40;25.30;69.20
18173;DHT22;9211;48.818;9.312;2022-08-11T10:07:13;25.40;68.60
18173;DHT22;9211;48.818;9.312;2022-08-11T10:09:44;25.50;68.60
18173;DHT22;9211;48.818;9.312;2022-08-11T10:12:17;25.60;68.40
18173;DHT22;9211;48.818;9.312;2022-08-11T10:14:48;25.70;67.00
18173;DHT22;9211;48.818;9.312;2022-08-11T10:17:42;25.90;66.60
18173;DHT22;9211;48.818;9.312;2022-08-11T10:20:33;26.00;65.30
18173;DHT22;9211;48.818;9.312;2022-08-11T10:23:01;26.20;64.70
18173;DHT22;9211;48.818;9.312;2022-08-11T10:25:46;26.30;64.50
18173;DHT22;9211;48.818;9.312;2022-08-11T10:28:33;26.40;65.00
18173;DHT22;9211;48.818;9.312;2022-08-11T10:31:01;26.40;64.30
18173;DHT22;9211;48.818;9.312;2022-08-11T10:33:49;26.50;64.40
18173;DHT22;9211;48.818;9.312;2022-08-11T10:36:26;26.60;63.80
18173;DHT22;9211;48.818;9.312;2022-08-11T10:38:55;26.70;63.50
18173;DHT22;9211;48.818;9.312;2022-08-11T10:41:23;26.80;63.40
18173;DHT22;9211;48.818;9.312;2022-08-11T10:44:08;26.90;63.30
18173;DHT22;9211;48.818;9.312;2022-08-11T10:46:37;26.90;63.40
18173;DHT22;9211;48.818;9.312;2022-08-11T10:49:24;27.00;62.10
18173;DHT22;9211;48.818;9.312;2022-08-11T10:51:55;27.10;61.50
18173;DHT22;9211;48.818;9.312;2022-08-11T10:54:40;27.10;60.90
18173;DHT22;9211;48.818;9.312;2022-08-11T10:57:27;27.20;60.80
18173;DHT22;9211;48.818;9.312;2022-08-11T11:00:12;27.30;59.30
18173;DHT22;9211;48.818;9.312;2022-08-11T11:02:40;27.40;59.10
18173;DHT22;9211;48.818;9.312;2022-08-11T11:05:13;27.50;59.10
18173;DHT22;9211;48.818;9.312;2022-08-11T11:07:47;27.50;59.30
18173;DHT22;9211;48.818;9.312;2022-08-11T11:10:16;27.50;58.60
18173;DHT22;9211;48.818;9.312;2022-08-11T11:12:45;27.50;58.10
18173;DHT22;9211;48.818;9.312;2022-08-11T11:15:31;27.60;57.80
18173;DHT22;9211;48.818;9.312;2022-08-11T11:18:21;27.60;58.10
18173;DHT22;9211;48.818;9.312;2022-08-11T11:20:55;27.70;57.40
18173;DHT22;9211;48.818;9.312;2022-08-11T11:23:25;27.80;57.00
18173;DHT22;9211;48.818;9.312;2022-08-11T11:31:58;28.10;56.00
18173;DHT22;9211;48.818;9.312;2022-08-11T11:34:58;28.20;55.90
18173;DHT22;9211;48.818;9.312;2022-08-11T11:37:31;28.20;55.50
18173;DHT22;9211;48.818;9.312;2022-08-11T11:40:00;28.30;55.60
18173;DHT22;9211;48.818;9.312;2022-08-11T11:42:28;28.30;56.10
18173;DHT22;9211;48.818;9.312;2022-08-11T11:44:56;28.40;55.30
18173;DHT22;9211;48.818;9.312;2022-08-11T11:47:24;28.50;55.50
18173;DHT22;9211;48.818;9.312;2022-08-11T11:49:52;28.50;54.60
18173;DHT22;9211;48.818;9.312;2022-08-11T11:52:21;28.60;54.80
18173;DHT22;9211;48.818;9.312;2022-08-11T11:54:51;28.70;54.90
18173;DHT22;9211;48.818;9.312;2022-08-11T11:57:21;28.80;54.40
18173;DHT22;9211;48.818;9.312;2022-08-11T12:00:08;28.80;53.90
18173;DHT22;9211;48.818;9.312;2022-08-11T12:02:55;28.80;53.30
18173;DHT22;9211;48.818;9.312;2022-08-11T12:05:24;28.80;53.10
18173;DHT22;9211;48.818;9.312;2022-08-11T12:07:52;28.90;52.90
18173;DHT22;9211;48.818;9.312;2022-08-11T12:10:45;28.90;53.20
18173;DHT22;9211;48.818;9.312;2022-08-11T12:13:14;29.00;53.30
18173;DHT22;9211;48.818;9.312;2022-08-11T12:16:15;29.10;53.20
18173;DHT22;9211;48.818;9.312;2022-08-11T12:18:46;29.20;52.60
18173;DHT22;9211;48.818;9.312;2022-08-11T12:21:14;29.30;51.60
18173;DHT22;9211;48.818;9.312;2022-08-11T12:23:43;29.30;51.60
18173;DHT22;9211;48.818;9.312;2022-08-11T12:26:30;29.40;51.90
18173;DHT22;9211;48.818;9.312;2022-08-11T12:29:16;29.50;52.00
18173;DHT22;9211;48.818;9.312;2022-08-11T12:31:44;29.60;50.50
18173;DHT22;9211;48.818;9.312;2022-08-11T12:34:13;29.60;50.90
18173;DHT22;9211;48.818;9.312;2022-08-11T12:36:42;29.60;50.90
18173;DHT22;9211;48.818;9.312;2022-08-11T12:39:12;29.70;51.00
18173;DHT22;9211;48.818;9.312;2022-08-11T12:41:42;29.90;51.10
18173;DHT22;9211;48.818;9.312;2022-08-11T12:44:27;30.00;50.40
18173;DHT22;9211;48.818;9.312;2022-08-11T12:47:16;30.10;49.70
18173;DHT22;9211;48.818;9.312;2022-08-11T12:49:46;30.20;50.70
18173;DHT22;9211;48.818;9.312;2022-08-11T12:52:34;30.20;50.10
18173;DHT22;9211;48.818;9.312;2022-08-11T12:55:09;30.30;49.50
18173;DHT22;9211;48.818;9.312;2022-08-11T12:57:43;30.30;49.20
18173;DHT22;9211;48.818;9.312;2022-08-11T13:00:30;30.40;48.10
18173;DHT22;9211;48.818;9.312;2022-08-11T13:03:18;30.40;47.70
18173;DHT22;9211;48.818;9.312;2022-08-11T13:06:04;30.30;47.00
18173;DHT22;9211;48.818;9.312;2022-08-11T13:08:33;30.40;46.90
18173;DHT22;9211;48.818;9.312;2022-08-11T13:11:01;30.40;47.00
18173;DHT22;9211;48.818;9.312;2022-08-11T13:13:48;30.50;48.30
18173;DHT22;9211;48.818;9.312;2022-08-11T13:16:17;30.60;48.10
18173;DHT22;9211;48.818;9.312;2022-08-11T13:18:45;30.70;47.70
18173;DHT22;9211;48.818;9.312;2022-08-11T13:21:13;30.80;47.70
18173;DHT22;9211;48.818;9.312;2022-08-11T13:23:43;30.80;47.10
18173;DHT22;9211;48.818;9.312;2022-08-11T13:26:10;30.90;46.90
18173;DHT22;9211;48.818;9.312;2022-08-11T13:28:39;30.90;47.60
18173;DHT22;9211;48.818;9.312;2022-08-11T13:31:08;31.00;47.30
18173;DHT22;9211;48.818;9.312;2022-08-11T13:33:41;31.10;46.90
18173;DHT22;9211;48.818;9.312;2022-08-11T13:36:10;31.20;46.70
18173;DHT22;9211;48.818;9.312;2022-08-11T13:38:40;31.20;46.90
18173;DHT22;9211;48.818;9.312;2022-08-11T13:41:08;31.30;45.80
18173;DHT22;9211;48.818;9.312;2022-08-11T13:43:50;31.30;46.40
18173;DHT22;9211;48.818;9.312;2022-08-11T13:46:20;31.40;45.80
18173;DHT22;9211;48.818;9.312;2022-08-11T13:48:49;31.50;46.50
18173;DHT22;9211;48.818;9.312;2022-08-11T13:51:17;31.50;46.20
18173;DHT22;9211;48.818;9.312;2022-08-11T13:54:00;31.60;46.10
18173;DHT22;9211;48.818;9.312;2022-08-11T13:56:28;31.70;45.80
18173;DHT22;9211;48.818;9.312;2022-08-11T13:58:56;31.70;45.20
18173;DHT22;9211;48.818;9.312;2022-08-11T14:01:27;31.70;44.60
18173;DHT22;9211;48.818;9.312;2022-08-11T14:04:02;31.80;45.30
18173;DHT22;9211;48.818;9.312;2022-08-11T14:06:30;31.80;44.10
18173;DHT22;9211;48.818;9.312;2022-08-11T14:08:59;31.90;44.20
18173;DHT22;9211;48.818;9.312;2022-08-11T14:11:28;31.90;43.60
18173;DHT22;9211;48.818;9.312;2022-08-11T14:14:20;32.00;44.70
18173;DHT22;9211;48.818;9.312;2022-08-11T14:16:51;32.00;44.40
18173;DHT22;9211;48.818;9.312;2022-08-11T14:19:23;32.00;44.10
18173;DHT22;9211;48.818;9.312;2022-08-11T14:21:52;32.00;43.80
18173;DHT22;9211;48.818;9.312;2022-08-11T14:24:38;32.00;44.10
18173;DHT22;9211;48.818;9.312;2022-08-11T14:27:07;32.00;43.20
18173;DHT22;9211;48.818;9.312;2022-08-11T14:29:35;32.10;44.00
18173;DHT22;9211;48.818;9.312;2022-08-11T14:32:07;32.20;43.80
18173;DHT22;9211;48.818;9.312;2022-08-11T14:34:37;32.20;43.60
18173;DHT22;9211;48.818;9.312;2022-08-11T14:37:07;32.30;44.00
18173;DHT22;9211;48.818;9.312;2022-08-11T14:39:40;32.30;43.30
18173;DHT22;9211;48.818;9.312;2022-08-11T14:42:09;32.30;43.90
18173;DHT22;9211;48.818;9.312;2022-08-11T14:44:57;32.40;43.80
18173;DHT22;9211;48.818;9.312;2022-08-11T14:47:46;32.40;43.50
18173;DHT22;9211;48.818;9.312;2022-08-11T14:50:16;32.40;43.00
18173;DHT22;9211;48.818;9.312;2022-08-11T14:52:49;32.50;42.70
18173;DHT22;9211;48.818;9.312;2022-08-11T14:55:17;32.50;42.70
18173;DHT22;9211;48.818;9.312;2022-08-11T14:58:04;32.50;43.10
18173;DHT22;9211;48.818;9.312;2022-08-11T15:00:34;32.60;43.50
18173;DHT22;9211;48.818;9.312;2022-08-11T15:03:04;32.60;43.30
18173;DHT22;9211;48.818;9.312;2022-08-11T15:05:37;32.70;42.80
18173;DHT22;9211;48.818;9.312;2022-08-11T15:08:08;32.70;42.10
18173;DHT22;9211;48.818;9.312;2022-08-11T15:10:35;32.80;41.90
18173;DHT22;9211;48.818;9.312;2022-08-11T15:13:03;32.80;42.20
18173;DHT22;9211;48.818;9.312;2022-08-11T15:15:30;32.90;41.80
18173;DHT22;9211;48.818;9.312;2022-08-11T15:18:19;32.90;41.20
18173;DHT22;9211;48.818;9.312;2022-08-11T15:20:49;32.90;41.20
18173;DHT22;9211;48.818;9.312;2022-08-11T15:23:34;33.00;41.10
18173;DHT22;9211;48.818;9.312;2022-08-11T15:26:23;33.00;41.00
18173;DHT22;9211;48.818;9.312;2022-08-11T15:29:11;32.90;41.50
18173;DHT22;9211;48.818;9.312;2022-08-11T15:31:57;32.90;41.80
18173;DHT22;9211;48.818;9.312;2022-08-11T15:34:45;32.90;41.50
18173;DHT22;9211;48.818;9.312;2022-08-11T15:37:30;32.90;41.30
18173;DHT22;9211;48.818;9.312;2022-08-11T15:40:08;32.90;41.70
18173;DHT22;9211;48.818;9.312;2022-08-11T15:42:59;32.90;42.00
18173;DHT22;9211;48.818;9.312;2022-08-11T15:45:45;32.90;42.00
18173;DHT22;9211;48.818;9.312;2022-08-11T15:48:27;33.00;42.50
18173;DHT22;9211;48.818;9.312;2022-08-11T15:51:01;33.10;42.20
18173;DHT22;9211;48.818;9.312;2022-08-11T15:53:33;33.20;41.50
18173;DHT22;9211;48.818;9.312;2022-08-11T15:56:05;33.30;41.60
18173;DHT22;9211;48.818;9.312;2022-08-11T15:58:37;33.30;41.90
18173;DHT22;9211;48.818;9.312;2022-08-11T16:01:24;33.30;41.70
18173;DHT22;9211;48.818;9.312;2022-08-11T16:04:13;33.40;41.90
18173;DHT22;9211;48.818;9.312;2022-08-11T16:06:47;33.40;41.80
18173;DHT22;9211;48.818;9.312;2022-08-11T16:09:17;33.40;41.70
18173;DHT22;9211;48.818;9.312;2022-08-11T16:11:46;33.40;41.90
18173;DHT22;9211;48.818;9.312;2022-08-11T16:14:15;33.40;41.60
18173;DHT22;9211;48.818;9.312;2022-08-11T16:17:01;33.40;41.20
18173;DHT22;9211;48.818;9.312;2022-08-11T16:19:28;33.30;41.00
18173;DHT22;9211;48.818;9.312;2022-08-11T16:22:04;33.20;40.80
18173;DHT22;9211;48.818;9.312;2022-08-11T16:24:34;33.20;40.50
18173;DHT22;9211;48.818;9.312;2022-08-11T16:27:04;33.20;40.40
18173;DHT22;9211;48.818;9.312;2022-08-11T16:29:32;33.20;40.80
18173;DHT22;9211;48.818;9.312;2022-08-11T16:32:03;33.20;41.20
18173;DHT22;9211;48.818;9.312;2022-08-11T16:34:45;33.20;41.50
18173;DHT22;9211;48.818;9.312;2022-08-11T16:37:33;33.10;41.10
18173;DHT22;9211;48.818;9.312;2022-08-11T16:40:19;33.10;41.10
18173;DHT22;9211;48.818;9.312;2022-08-11T16:42:48;33.00;41.20
18173;DHT22;9211;48.818;9.312;2022-08-11T16:45:34;33.00;41.40
18173;DHT22;9211;48.818;9.312;2022-08-11T16:48:21;32.90;41.30
18173;DHT22;9211;48.818;9.312;2022-08-11T16:50:49;32.90;41.40
18173;DHT22;9211;48.818;9.312;2022-08-11T16:53:17;32.90;41.30
18173;DHT22;9211;48.818;9.312;2022-08-11T16:55:46;32.90;41.00
18173;DHT22;9211;48.818;9.312;2022-08-11T16:58:14;32.90;41.10
18173;DHT22;9211;48.818;9.312;2022-08-11T17:01:00;32.80;41.20
18173;DHT22;9211;48.818;9.312;2022-08-11T17:03:30;32.80;41.50
18173;DHT22;9211;48.818;9.312;2022-08-11T17:06:17;32.70;41.60
18173;DHT22;9211;48.818;9.312;2022-08-11T17:09:06;32.70;41.50
18173;DHT22;9211;48.818;9.312;2022-08-11T17:11:54;32.60;41.30
18173;DHT22;9211;48.818;9.312;2022-08-11T17:14:42;32.60;41.10
18173;DHT22;9211;48.818;9.312;2022-08-11T17:17:14;32.60;41.40
18173;DHT22;9211;48.818;9.312;2022-08-11T17:19:44;32.50;41.40
18173;DHT22;9211;48.818;9.312;2022-08-11T17:22:13;32.40;41.30
18173;DHT22;9211;48.818;9.312;2022-08-11T17:25:00;32.20;41.60
18173;DHT22;9211;48.818;9.312;2022-08-11T17:27:30;32.10;42.00
18173;DHT22;9211;48.818;9.312;2022-08-11T17:30:01;31.90;42.10
18173;DHT22;9211;48.818;9.312;2022-08-11T17:32:32;31.70;42.30
18173;DHT22;9211;48.818;9.312;2022-08-11T17:35:22;31.60;42.20
18173;DHT22;9211;48.818;9.312;2022-08-11T17:38:00;31.50;42.30
18173;DHT22;9211;48.818;9.312;2022-08-11T17:40:34;31.30;42.70
18173;DHT22;9211;48.818;9.312;2022-08-11T17:43:06;31.20;42.80
18173;DHT22;9211;48.818;9.312;2022-08-11T17:45:52;31.00;43.70
18173;DHT22;9211;48.818;9.312;2022-08-11T17:48:41;30.70;44.40